Time;durP1;ratioP1;P1;durP2;ratioP2;P2;SDS_P1;SDS_P2;PMS_P1;PMS_P2;Temp;Humidity;BMP_temperature;BMP_pressure;BME280_temperature;BME280_humidity;BME280_pressure;Samples;Min_cycle;Max_cycle;Signal;HPM_P1;HPM_P2
2021/08/11 00:01:43;;;;;;;5.47;3.40;;;;;;;22.79;61.10;99793.29;1778573;80;22650;-72
2021/08/11 00:04:10;;;;;;;5.33;3.50;;;;;;;22.72;61.32;99786.59;1786347;80;21377;-72
2021/08/11 00:06:36;;;;;;;6.17;3.35;;;;;;;22.67;61.46;99783.70;1786466;80;21522;-71
2021/08/11 00:09:03;;;;;;;6.15;3.20;;;;;;;22.65;61.64;99782.27;1786368;80;20953;-71
2021/08/11 00:11:31;;;;;;;6.47;3.40;;;;;;;22.63;61.68;99782.48;1735687;80;21006;-71
2021/08/11 00:13:57;;;;;;;5.45;3.50;;;;;;;22.60;61.81;99782.10;1769812;80;21806;-76
2021/08/11 00:16:25;;;;;;;5.58;3.12;;;;;;;22.55;61.93;99779.52;1752114;81;20958;-72
2021/08/11 00:18:52;;;;;;;5.53;3.95;;;;;;;22.52;62.18;99783.16;1743951;81;21009;-72
2021/08/11 00:21:18;;;;;;;7.17;3.62;;;;;;;22.48;62.23;99791.34;1739827;80;21047;-73
2021/08/11 00:23:46;;;;;;;5.30;3.17;;;;;;;22.44;62.37;99784.75;1725286;82;21055;-73
2021/08/11 00:26:12;;;;;;;6.00;3.20;;;;;;;22.40;62.53;99791.08;1725561;83;21804;-73
2021/08/11 00:28:39;;;;;;;4.15;3.35;;;;;;;22.38;62.71;99788.28;1725202;83;20964;-73
2021/08/11 00:31:05;;;;;;;5.22;3.40;;;;;;;22.35;62.81;99792.23;1742444;80;21019;-73
2021/08/11 00:33:32;;;;;;;5.62;3.47;;;;;;;22.34;62.90;99785.72;1748821;80;20959;-73
2021/08/11 00:36:00;;;;;;;4.50;3.27;;;;;;;22.31;62.97;99792.36;1755317;81;21045;-73
2021/08/11 00:38:27;;;;;;;5.37;3.40;;;;;;;22.29;63.05;99795.75;1727819;81;21748;-73
2021/08/11 00:40:56;;;;;;;4.75;3.37;;;;;;;22.27;63.09;99791.94;1763102;80;20941;-74
2021/08/11 00:43:22;;;;;;;4.22;3.20;;;;;;;22.26;63.10;99792.98;1772094;80;21356;-73
2021/08/11 00:45:49;;;;;;;5.62;3.27;;;;;;;22.26;63.18;99798.36;1748856;80;21510;-73
2021/08/11 00:48:17;;;;;;;7.95;3.40;;;;;;;22.27;63.21;99793.80;1722167;82;21079;-73
2021/08/11 00:50:44;;;;;;;5.42;3.60;;;;;;;22.25;63.31;99795.89;1744734;80;22217;-72
2021/08/11 00:53:13;;;;;;;7.72;3.60;;;;;;;22.21;63.49;99796.84;1748643;80;20992;-73
2021/08/11 00:55:42;;;;;;;5.90;3.62;;;;;;;22.17;63.66;99794.25;1711241;81;20936;-72
2021/08/11 00:58:10;;;;;;;6.97;3.77;;;;;;;22.16;63.74;99791.77;1755581;81;21051;-72
2021/08/11 01:00:43;;;;;;;6.78;3.77;;;;;;;22.16;63.86;99790.42;1755345;80;21032;-72
2021/08/11 01:03:16;;;;;;;6.03;3.50;;;;;;;22.15;63.90;99790.95;1746212;81;22210;-72
2021/08/11 01:05:43;;;;;;;5.75;3.50;;;;;;;22.16;63.97;99789.08;1749584;82;20944;-72
2021/08/11 01:08:10;;;;;;;5.95;3.40;;;;;;;22.13;64.08;99793.03;1703633;83;20989;-73
2021/08/11 01:10:38;;;;;;;4.60;3.52;;;;;;;22.13;64.14;99786.83;1738891;80;21027;-72
2021/08/11 01:13:05;;;;;;;5.40;3.50;;;;;;;22.12;64.21;99795.41;1777612;80;20989;-72
2021/08/11 01:15:32;;;;;;;4.42;3.80;;;;;;;22.10;64.30;99796.15;1728472;82;22630;-72
2021/08/11 01:17:59;;;;;;;7.08;3.92;;;;;;;22.05;64.42;99790.53;1749631;81;20905;-72
2021/08/11 01:20:27;;;;;;;6.28;3.52;;;;;;;22.02;64.49;99788.27;1749609;80;21036;-73
2021/08/11 01:23:00;;;;;;;5.08;3.75;;;;;;;22.00;64.57;99790.31;1761234;80;20945;-72
2021/08/11 01:25:44;;;;;;;4.72;3.62;;;;;;;22.00;64.63;99794.34;1765002;80;21039;-72
2021/08/11 01:28:39;;;;;;;6.53;3.70;;;;;;;21.99;64.72;99794.87;1780853;80;22869;-72
2021/08/11 01:31:18;;;;;;;3.90;3.50;;;;;;;21.94;64.83;99794.69;1779297;80;21392;-72
2021/08/11 01:34:29;;;;;;;5.35;3.80;;;;;;;21.92;64.96;99799.98;1756097;80;21020;-73
2021/08/11 01:37:02;;;;;;;6.72;3.55;;;;;;;21.89;65.09;99800.38;1715700;82;20970;-72
2021/08/11 01:39:35;;;;;;;4.53;3.60;;;;;;;21.87;65.15;99801.94;1713810;83;21010;-72
2021/08/11 01:42:15;;;;;;;4.53;3.58;;;;;;;21.85;65.27;99800.50;1742602;80;21766;-73
2021/08/11 01:45:15;;;;;;;7.03;3.58;;;;;;;21.83;65.26;99801.23;1740416;80;21396;-72
2021/08/11 01:48:11;;;;;;;8.28;3.85;;;;;;;21.81;65.40;99801.93;1748528;82;20972;-72
2021/08/11 01:50:40;;;;;;;6.25;3.95;;;;;;;21.76;65.51;99803.91;1749577;80;20981;-72
2021/08/11 01:53:11;;;;;;;4.03;3.40;;;;;;;21.72;65.56;99805.38;1741090;80;21554;-72
2021/08/11 01:55:38;;;;;;;8.48;3.70;;;;;;;21.70;65.57;99806.91;1719456;82;21891;-72
2021/08/11 01:58:05;;;;;;;4.95;3.90;;;;;;;21.69;65.55;99793.67;1746992;82;20943;-73
2021/08/11 02:00:32;;;;;;;4.10;3.70;;;;;;;21.69;65.55;99803.91;1737351;82;21018;-73
2021/08/11 02:03:00;;;;;;;4.92;3.70;;;;;;;21.69;65.49;99803.91;1762460;80;21028;-73
2021/08/11 02:05:30;;;;;;;4.53;3.50;;;;;;;21.69;65.43;99804.43;1778232;80;20996;-73
2021/08/11 02:08:00;;;;;;;4.50;3.85;;;;;;;21.69;65.49;99800.40;1780875;80;22203;-73
2021/08/11 02:10:29;;;;;;;4.30;3.37;;;;;;;21.65;65.57;99812.61;1757026;80;21405;-73
2021/08/11 02:12:57;;;;;;;5.08;3.90;;;;;;;21.63;65.62;99806.11;1747019;80;21022;-72
2021/08/11 02:15:24;;;;;;;3.75;3.45;;;;;;;21.62;65.72;99809.00;1671761;80;21079;-73
2021/08/11 02:17:51;;;;;;;5.60;3.62;;;;;;;21.61;65.76;99812.17;1748193;80;21015;-73
2021/08/11 02:20:19;;;;;;;6.35;3.80;;;;;;;21.61;65.81;99800.60;1749677;82;21855;-72
2021/08/11 02:22:48;;;;;;;5.75;3.92;;;;;;;21.60;65.91;99809.19;1749623;82;20997;-72
2021/08/11 02:25:14;;;;;;;5.15;4.25;;;;;;;21.56;66.12;99811.98;1749640;82;20997;-73
2021/08/11 02:28:05;;;;;;;4.95;3.75;;;;;;;21.54;66.24;99815.92;1726909;80;21108;-73
2021/08/11 02:30:59;;;;;;;4.25;3.83;;;;;;;21.53;66.32;99803.52;1723648;82;20987;-73
2021/08/11 02:33:43;;;;;;;7.25;3.87;;;;;;;21.51;66.53;99811.77;1737829;80;21835;-72
2021/08/11 02:36:17;;;;;;;6.35;3.58;;;;;;;21.49;66.68;99811.67;1739994;80;21476;-73
2021/08/11 02:38:44;;;;;;;6.78;3.75;;;;;;;21.47;66.77;99812.40;1726216;82;20957;-73
2021/08/11 02:41:19;;;;;;;4.60;3.80;;;;;;;21.47;66.85;99805.69;1664468;82;20985;-73
2021/08/11 02:43:54;;;;;;;6.70;4.00;;;;;;;21.46;66.89;99808.06;1737773;82;20997;-73
2021/08/11 02:46:24;;;;;;;7.05;4.20;;;;;;;21.45;66.96;99806.41;1741277;80;22481;-74
2021/08/11 02:49:02;;;;;;;5.17;4.00;;;;;;;21.45;67.00;99816.64;1749391;80;21048;-74
2021/08/11 02:51:33;;;;;;;4.83;3.87;;;;;;;21.43;66.98;99813.34;1753830;80;20985;-74
2021/08/11 02:54:15;;;;;;;7.78;3.77;;;;;;;21.45;66.91;99816.64;1741792;82;21460;-73
2021/08/11 02:56:43;;;;;;;4.42;4.03;;;;;;;21.43;66.91;99815.51;1737928;82;21013;-72
2021/08/11 02:59:11;;;;;;;6.15;4.15;;;;;;;21.41;66.87;99816.20;1740626;82;22520;-72
2021/08/11 03:01:38;;;;;;;8.08;4.08;;;;;;;21.40;66.89;99817.76;1742123;82;21000;-72
2021/08/11 03:04:04;;;;;;;5.47;3.47;;;;;;;21.35;66.90;99813.02;1743610;81;20997;-73
2021/08/11 03:06:31;;;;;;;6.00;3.90;;;;;;;21.36;66.91;99816.53;1729798;81;20997;-72
2021/08/11 03:08:58;;;;;;;5.83;4.05;;;;;;;21.35;66.91;99822.94;1743363;82;21020;-72
2021/08/11 03:11:25;;;;;;;5.50;3.90;;;;;;;21.31;66.90;99823.02;1761201;80;21817;-74
2021/08/11 03:13:52;;;;;;;6.35;3.80;;;;;;;21.29;66.92;99823.74;1755065;80;20961;-72
2021/08/11 03:16:19;;;;;;;5.25;3.83;;;;;;;21.26;67.01;99826.81;1740065;80;21092;-73
2021/08/11 03:18:50;;;;;;;8.00;3.80;;;;;;;21.22;67.12;99824.21;1729344;82;21028;-70
2021/08/11 03:21:17;;;;;;;4.53;3.70;;;;;;;21.20;67.19;99828.45;1753211;80;21055;-71
2021/08/11 03:23:44;;;;;;;6.72;3.85;;;;;;;21.18;67.24;99828.34;1742910;80;22648;-71
2021/08/11 03:26:11;;;;;;;5.42;3.70;;;;;;;21.17;67.30;99828.86;1741938;82;20936;-73
2021/08/11 03:28:38;;;;;;;6.50;4.35;;;;;;;21.14;67.36;99829.28;1740032;81;21009;-73
2021/08/11 03:31:06;;;;;;;5.95;4.10;;;;;;;21.14;67.40;99830.11;1744670;82;21036;-73
2021/08/11 03:33:34;;;;;;;7.95;4.00;;;;;;;21.15;67.41;99830.41;1713729;83;20961;-73
2021/08/11 03:36:01;;;;;;;9.35;4.20;;;;;;;21.16;67.46;99832.59;1751565;82;22181;-73
2021/08/11 03:38:27;;;;;;;4.92;3.92;;;;;;;21.17;67.49;99824.84;1752530;82;21052;-73
2021/08/11 03:40:54;;;;;;;5.33;3.83;;;;;;;21.19;67.57;99826.80;1743281;82;20967;-73
2021/08/11 03:43:21;;;;;;;4.45;3.77;;;;;;;21.21;67.60;99825.24;1737577;82;20976;-71
2021/08/11 03:45:50;;;;;;;5.10;3.90;;;;;;;21.23;67.66;99828.55;1741762;82;21467;-71
2021/08/11 03:48:16;;;;;;;4.53;4.12;;;;;;;21.23;67.68;99825.37;1734042;82;22496;-71
2021/08/11 03:50:43;;;;;;;9.48;4.40;;;;;;;21.25;67.73;99826.51;1731992;82;20969;-71
2021/08/11 03:53:11;;;;;;;7.55;4.83;;;;;;;21.25;67.81;99826.51;1748690;81;21048;-71
2021/08/11 03:55:39;;;;;;;6.40;4.78;;;;;;;21.25;67.84;99827.34;1749647;81;21415;-71
2021/08/11 03:58:06;;;;;;;6.80;4.37;;;;;;;21.26;67.87;99830.84;1746471;81;21444;-71
2021/08/11 04:00:33;;;;;;;9.00;4.53;;;;;;;21.29;67.87;99835.31;1739208;82;22239;-71
2021/08/11 04:02:59;;;;;;;6.47;4.17;;;;;;;21.31;67.86;99836.45;1728346;81;21008;-71
2021/08/11 04:05:26;;;;;;;7.12;4.40;;;;;;;21.35;67.81;99842.56;1754185;81;21432;-74
2021/08/11 04:07:52;;;;;;;6.40;4.25;;;;;;;21.40;67.80;99841.42;1741234;81;21081;-72
2021/08/11 04:10:19;;;;;;;8.13;4.35;;;;;;;21.39;67.72;99841.11;1750582;81;21011;-71
2021/08/11 04:12:45;;;;;;;5.12;4.15;;;;;;;21.43;67.71;99846.92;1755635;81;22534;-71
2021/08/11 04:15:11;;;;;;;6.58;4.47;;;;;;;21.44;67.63;99848.58;1746034;81;20973;-75
2021/08/11 04:17:38;;;;;;;6.58;3.98;;;;;;;21.48;67.58;99847.64;1729856;81;21454;-72
2021/08/11 04:20:06;;;;;;;7.72;4.58;;;;;;;21.50;67.57;99850.42;1753965;81;20961;-73
2021/08/11 04:22:33;;;;;;;5.62;4.40;;;;;;;21.52;67.54;99844.34;1751551;81;20961;-72
2021/08/11 04:24:59;;;;;;;7.22;4.33;;;;;;;21.55;67.46;99851.17;1755296;81;22585;-72
2021/08/11 04:27:26;;;;;;;5.90;4.42;;;;;;;21.57;67.44;99853.95;1755208;81;20952;-73
2021/08/11 04:29:52;;;;;;;5.80;4.20;;;;;;;21.60;67.41;99841.44;1753462;81;21088;-71
2021/08/11 04:32:18;;;;;;;7.17;4.10;;;;;;;21.65;67.34;99838.97;1736547;81;21049;-73
2021/08/11 04:34:46;;;;;;;4.65;4.00;;;;;;;21.69;67.28;99842.06;1753105;81;21075;-72
2021/08/11 04:37:13;;;;;;;6.50;3.72;;;;;;;21.76;67.06;99835.34;1744351;80;22202;-72
2021/08/11 04:39:40;;;;;;;5.55;4.10;;;;;;;21.81;66.73;99837.73;1751470;80;20987;-72
2021/08/11 04:42:06;;;;;;;6.83;4.15;;;;;;;21.82;66.44;99833.19;1750162;81;20977;-72
2021/08/11 04:44:32;;;;;;;7.12;4.20;;;;;;;21.85;66.38;99826.86;1748980;82;20965;-72
2021/08/11 04:46:59;;;;;;;4.50;3.85;;;;;;;21.90;66.27;99821.67;1740462;82;21493;-72
2021/08/11 04:49:25;;;;;;;7.33;4.15;;;;;;;21.95;66.01;99820.54;1740821;81;22225;-71
2021/08/11 04:51:52;;;;;;;7.17;4.42;;;;;;;22.02;65.95;99821.89;1743083;81;20977;-72
2021/08/11 04:54:18;;;;;;;6.00;4.35;;;;;;;22.03;65.48;99818.16;1749663;82;21052;-72
2021/08/11 04:56:44;;;;;;;4.80;4.10;;;;;;;22.03;65.37;99827.57;1749213;81;21009;-72
2021/08/11 04:59:10;;;;;;;7.03;4.00;;;;;;;22.04;65.37;99823.84;1753422;81;21053;-71
2021/08/11 05:01:37;;;;;;;5.75;4.05;;;;;;;22.09;65.35;99826.74;1749305;81;22478;-72
2021/08/11 05:04:03;;;;;;;5.75;4.17;;;;;;;22.13;65.20;99829.34;1747564;82;21021;-73
2021/08/11 05:06:30;;;;;;;6.08;3.98;;;;;;;22.13;65.21;99828.52;1745352;81;21079;-72
2021/08/11 05:08:57;;;;;;;8.60;4.00;;;;;;;22.11;65.17;99826.04;1745254;82;21029;-72
2021/08/11 05:11:23;;;;;;;6.47;4.15;;;;;;;22.15;65.26;99831.81;1745254;82;21075;-72
2021/08/11 05:13:49;;;;;;;5.10;3.77;;;;;;;22.20;65.14;99829.34;1750267;80;21932;-72
2021/08/11 05:16:16;;;;;;;6.70;4.22;;;;;;;22.26;65.10;99825.78;1782803;79;20984;-73
2021/08/11 05:18:42;;;;;;;7.45;4.00;;;;;;;22.34;64.99;99826.08;1782903;80;21000;-72
2021/08/11 05:21:08;;;;;;;5.05;4.10;;;;;;;22.39;64.72;99821.73;1758320;80;21018;-73
2021/08/11 05:23:35;;;;;;;7.85;4.05;;;;;;;22.41;64.70;99829.06;1767882;80;21043;-73
2021/08/11 05:26:01;;;;;;;5.78;4.30;;;;;;;22.44;64.54;99830.49;1751486;82;22199;-74
2021/08/11 05:28:28;;;;;;;5.95;4.17;;;;;;;22.47;64.35;99845.69;1748494;82;21041;-73
2021/08/11 05:30:55;;;;;;;6.67;4.30;;;;;;;22.48;64.28;99837.91;1745528;82;21492;-74
2021/08/11 05:33:21;;;;;;;7.50;4.62;;;;;;;22.52;64.38;99840.51;1745621;82;21013;-74
2021/08/11 05:35:47;;;;;;;6.80;4.12;;;;;;;22.57;64.19;99839.33;1745817;82;21047;-74
2021/08/11 05:38:14;;;;;;;7.62;4.10;;;;;;;22.60;64.08;99838.63;1745859;82;21846;-74
2021/08/11 05:40:40;;;;;;;8.98;4.58;;;;;;;22.64;64.19;99838.50;1748362;81;21039;-74
2021/08/11 05:43:06;;;;;;;5.00;4.10;;;;;;;22.71;64.20;99840.13;1747057;82;21083;-72
2021/08/11 05:45:32;;;;;;;5.45;4.03;;;;;;;22.78;64.04;99842.28;1746033;81;21104;-73
2021/08/11 05:47:59;;;;;;;6.87;4.25;;;;;;;22.83;63.87;99843.80;1745753;82;21064;-73
2021/08/11 05:50:25;;;;;;;7.03;4.33;;;;;;;22.89;63.83;99839.98;1747747;81;22182;-73
2021/08/11 05:52:52;;;;;;;5.25;4.70;;;;;;;22.93;63.92;99841.19;1749571;81;21056;-72
2021/08/11 05:55:18;;;;;;;4.83;4.30;;;;;;;22.98;63.94;99842.21;1752138;81;21012;-74
2021/08/11 05:57:44;;;;;;;7.12;4.97;;;;;;;23.04;63.89;99830.55;1734180;81;21040;-75
2021/08/11 06:00:11;;;;;;;6.87;4.20;;;;;;;23.05;63.92;99830.86;1716212;83;21048;-74
2021/08/11 06:02:39;;;;;;;8.85;4.75;;;;;;;23.08;63.66;99830.45;1736121;81;21837;-74
2021/08/11 06:05:14;;;;;;;5.97;4.72;;;;;;;23.08;63.71;99826.92;1750632;82;21008;-75
2021/08/11 06:07:40;;;;;;;5.33;4.33;;;;;;;23.11;63.84;99823.27;1751390;82;21051;-75
2021/08/11 06:10:08;;;;;;;8.10;4.78;;;;;;;23.17;63.87;99818.06;1715534;83;21008;-74
2021/08/11 06:12:35;;;;;;;6.70;4.72;;;;;;;23.23;63.79;99822.05;1687708;85;21492;-75
2021/08/11 06:15:01;;;;;;;6.12;4.60;;;;;;;23.26;63.59;99810.00;1686722;85;22851;-75
2021/08/11 06:17:28;;;;;;;8.00;4.50;;;;;;;23.32;63.66;99817.22;1715344;83;21024;-75
2021/08/11 06:19:55;;;;;;;6.67;4.75;;;;;;;23.34;63.56;99813.26;1687131;85;21103;-75
2021/08/11 06:22:22;;;;;;;8.45;4.90;;;;;;;23.42;63.60;99820.26;1702671;83;21051;-74
2021/08/11 06:24:48;;;;;;;7.30;5.08;;;;;;;23.52;63.52;99823.81;1672643;85;21079;-75
2021/08/11 06:27:15;;;;;;;7.10;5.12;;;;;;;23.56;63.27;99827.73;1690181;84;22883;-76
2021/08/11 06:29:41;;;;;;;7.62;5.25;;;;;;;23.61;63.38;99823.88;1704453;83;21036;-75
2021/08/11 06:32:08;;;;;;;7.17;4.95;;;;;;;23.71;63.32;99825.55;1700379;84;21059;-75
2021/08/11 06:34:34;;;;;;;6.58;4.90;;;;;;;23.80;63.06;99828.27;1681820;85;21048;-76
2021/08/11 06:37:00;;;;;;;6.50;5.12;;;;;;;23.84;62.93;99824.10;1674345;84;21035;-74
2021/08/11 06:39:27;;;;;;;5.22;4.70;;;;;;;23.94;63.15;99823.59;1684489;84;21767;-76
2021/08/11 06:41:53;;;;;;;10.63;4.70;;;;;;;24.09;62.77;99819.18;1719612;82;21087;-75
2021/08/11 06:44:21;;;;;;;5.97;4.75;;;;;;;24.14;62.23;99807.20;1700847;84;21064;-73
2021/08/11 06:46:48;;;;;;;9.70;4.83;;;;;;;24.20;62.31;99819.78;1686716;83;21048;-74
2021/08/11 06:49:14;;;;;;;6.87;4.42;;;;;;;24.27;61.96;99808.40;1713609;82;21231;-74
2021/08/11 06:51:40;;;;;;;6.10;4.40;;;;;;;24.34;61.85;99814.59;1689886;85;22895;-74
2021/08/11 06:54:10;;;;;;;8.65;4.50;;;;;;;24.46;61.82;99825.45;1703296;84;21370;-73
2021/08/11 06:56:35;;;;;;;5.15;4.60;;;;;;;24.55;61.56;99822.22;1686836;84;20960;-72
2021/08/11 06:59:02;;;;;;;5.40;3.95;;;;;;;24.63;61.48;99822.45;1688275;85;21008;-75
2021/08/11 07:01:28;;;;;;;5.28;4.17;;;;;;;24.78;61.58;99822.86;1698389;83;21055;-75
2021/08/11 07:03:54;;;;;;;6.05;4.35;;;;;;;24.95;61.44;99828.45;1664612;85;22199;-75
2021/08/11 07:06:21;;;;;;;5.55;4.40;;;;;;;25.07;60.86;99827.17;1686261;85;21029;-75
2021/08/11 07:08:48;;;;;;;6.55;4.58;;;;;;;25.16;60.73;99831.73;1681175;85;21049;-74
2021/08/11 07:11:14;;;;;;;8.08;4.12;;;;;;;25.27;60.39;99824.18;1670731;86;20986;-74
2021/08/11 07:13:41;;;;;;;4.80;4.08;;;;;;;25.29;60.04;99812.63;1675830;85;21548;-74
2021/08/11 07:16:08;;;;;;;8.78;4.58;;;;;;;25.32;59.96;99814.33;1686654;83;21877;-73
2021/08/11 07:18:34;;;;;;;5.83;4.08;;;;;;;25.34;59.83;99814.09;1707005;83;21141;-74
2021/08/11 07:21:01;;;;;;;7.00;5.28;;;;;;;25.35;59.77;99811.16;1753595;80;21013;-74
2021/08/11 07:23:27;;;;;;;6.10;4.70;;;;;;;25.39;60.03;99813.72;1743537;82;20957;-74
2021/08/11 07:25:53;;;;;;;5.72;4.28;;;;;;;25.49;59.91;99809.61;1739932;82;20947;-74
2021/08/11 07:28:20;;;;;;;8.80;4.85;;;;;;;25.62;60.06;99815.62;1714278;83;22205;-72
2021/08/11 07:30:47;;;;;;;7.75;4.83;;;;;;;25.76;59.42;99819.47;1689750;85;20961;-72
2021/08/11 07:33:13;;;;;;;7.53;4.90;;;;;;;25.80;58.68;99822.84;1716500;83;20956;-72
2021/08/11 07:35:40;;;;;;;6.03;4.30;;;;;;;25.79;58.96;99817.67;1682224;85;21064;-73
2021/08/11 07:38:07;;;;;;;4.90;4.37;;;;;;;25.83;58.89;99821.54;1683927;85;21001;-72
2021/08/11 07:40:34;;;;;;;9.08;4.55;;;;;;;25.88;58.87;99814.91;1749674;82;22857;-72
2021/08/11 07:43:01;;;;;;;8.40;4.40;;;;;;;26.00;58.97;99813.02;1749845;82;21506;-71
2021/08/11 07:45:30;;;;;;;17.23;4.62;;;;;;;26.11;58.74;99806.77;1749107;82;21068;-72
2021/08/11 07:47:57;;;;;;;5.35;4.60;;;;;;;26.20;58.66;99808.05;1754384;80;20941;-71
2021/08/11 07:50:26;;;;;;;5.78;4.75;;;;;;;26.29;58.20;99800.92;1746177;80;21017;-72
2021/08/11 07:52:52;;;;;;;7.40;5.00;;;;;;;26.37;57.97;99800.55;1743971;82;21798;-71
2021/08/11 07:55:19;;;;;;;5.72;4.55;;;;;;;26.43;57.14;99797.72;1741307;82;21011;-73
2021/08/11 07:57:47;;;;;;;5.35;4.40;;;;;;;26.42;57.37;99800.67;1743917;82;21705;-73
2021/08/11 08:00:16;;;;;;;8.13;4.10;;;;;;;26.44;56.87;99800.75;1742511;82;21429;-71
2021/08/11 08:02:43;;;;;;;7.42;4.92;;;;;;;26.49;56.81;99791.89;1743966;82;21214;-71
2021/08/11 08:05:11;;;;;;;6.40;4.40;;;;;;;26.53;56.15;99792.52;1743725;82;22240;-73
2021/08/11 08:07:37;;;;;;;7.28;4.90;;;;;;;26.53;55.70;99802.52;1742979;82;20958;-72
2021/08/11 08:10:05;;;;;;;11.97;5.35;;;;;;;26.52;55.53;99793.58;1745906;82;20964;-72
2021/08/11 08:12:32;;;;;;;11.78;4.95;;;;;;;26.49;55.72;99788.66;1745199;82;20994;-72
2021/08/11 08:14:58;;;;;;;5.60;4.62;;;;;;;26.53;55.62;99793.87;1743692;81;21091;-72
2021/08/11 08:17:25;;;;;;;10.35;4.53;;;;;;;26.59;56.22;99783.97;1743936;82;22191;-74
2021/08/11 08:19:51;;;;;;;7.47;4.72;;;;;;;26.66;55.67;99780.59;1742698;82;21087;-73
2021/08/11 08:22:17;;;;;;;6.97;4.20;;;;;;;26.76;55.71;99787.56;1704965;84;20969;-73
2021/08/11 08:24:44;;;;;;;6.47;4.60;;;;;;;26.82;55.32;99784.40;1669264;84;20969;-73
2021/08/11 08:27:10;;;;;;;11.53;4.67;;;;;;;26.86;55.58;99787.47;1705058;83;21001;-73
2021/08/11 08:29:37;;;;;;;7.80;4.28;;;;;;;26.94;55.60;99779.77;1688644;84;21818;-73
2021/08/11 08:32:04;;;;;;;7.22;4.30;;;;;;;27.02;54.65;99783.95;1685497;85;20951;-74
2021/08/11 08:34:30;;;;;;;7.17;4.50;;;;;;;27.06;54.93;99788.69;1698954;84;21143;-73
2021/08/11 08:36:57;;;;;;;6.65;4.17;;;;;;;27.15;54.36;99786.41;1701861;84;20954;-74
2021/08/11 08:39:23;;;;;;;6.17;4.20;;;;;;;27.18;53.83;99772.88;1685005;85;20951;-73
2021/08/11 08:41:50;;;;;;;5.50;3.85;;;;;;;27.13;53.56;99785.83;1749940;82;21786;-72
2021/08/11 08:44:16;;;;;;;8.33;3.95;;;;;;;27.11;53.74;99777.09;1751437;82;21073;-73
2021/08/11 08:46:43;;;;;;;6.47;4.40;;;;;;;27.15;53.77;99776.91;1722703;81;20958;-74
2021/08/11 08:49:17;;;;;;;9.55;3.90;;;;;;;27.16;53.70;99773.67;1735905;81;21009;-74
2021/08/11 08:51:47;;;;;;;8.30;3.98;;;;;;;27.17;54.14;99770.70;1704462;83;20958;-73
2021/08/11 08:54:14;;;;;;;7.20;3.85;;;;;;;27.26;53.87;99771.95;1749830;81;21875;-72
2021/08/11 08:56:41;;;;;;;7.45;3.60;;;;;;;27.43;53.11;99769.25;1749538;80;21004;-73
2021/08/11 08:59:07;;;;;;;7.92;3.80;;;;;;;27.57;52.99;99769.19;1764497;80;20961;-73
2021/08/11 09:01:34;;;;;;;6.85;3.70;;;;;;;27.70;52.49;99773.50;1736018;80;21188;-74
2021/08/11 09:04:01;;;;;;;5.87;3.50;;;;;;;27.73;52.10;99775.70;1736041;82;21149;-73
2021/08/11 09:06:34;;;;;;;10.15;4.00;;;;;;;27.72;51.77;99771.36;1740247;82;22218;-73
2021/08/11 09:09:04;;;;;;;4.25;3.47;;;;;;;27.70;52.03;99774.86;1743270;81;21005;-74
2021/08/11 09:11:33;;;;;;;6.42;3.70;;;;;;;27.75;52.06;99775.45;1752420;80;20988;-74
2021/08/11 09:14:25;;;;;;;5.25;3.50;;;;;;;27.86;51.91;99779.42;1755327;81;21107;-74
2021/08/11 09:16:57;;;;;;;9.78;3.60;;;;;;;27.99;52.05;99776.91;1752722;80;21049;-74
2021/08/11 09:19:23;;;;;;;4.45;3.22;;;;;;;28.11;51.43;99777.61;1734419;80;22480;-74
2021/08/11 09:22:04;;;;;;;4.03;3.45;;;;;;;28.13;51.21;99774.64;1745528;80;21701;-74
2021/08/11 09:24:36;;;;;;;5.72;3.50;;;;;;;28.18;51.16;99776.05;1733288;81;21051;-74
2021/08/11 09:27:23;;;;;;;6.47;3.70;;;;;;;28.29;50.93;99771.63;1722558;82;20961;-74
2021/08/11 09:30:21;;;;;;;4.62;3.37;;;;;;;28.38;51.16;99767.39;1742184;80;20996;-74
2021/08/11 09:33:03;;;;;;;7.60;3.70;;;;;;;28.51;50.00;99766.99;1772452;80;21801;-75
2021/08/11 09:35:33;;;;;;;5.65;3.70;;;;;;;28.45;50.25;99763.92;1749225;80;21448;-75
2021/08/11 09:38:05;;;;;;;5.78;3.40;;;;;;;28.57;50.95;99761.91;1757471;80;21008;-74
2021/08/11 09:40:34;;;;;;;5.03;3.37;;;;;;;28.76;50.76;99755.59;1730043;80;21047;-72
2021/08/11 09:43:04;;;;;;;8.43;3.62;;;;;;;28.98;49.47;99767.26;1758271;80;20985;-76
2021/08/11 09:45:51;;;;;;;4.17;3.33;;;;;;;29.15;49.64;99766.33;1781748;80;21812;-74
2021/08/11 09:48:21;;;;;;;5.67;3.42;;;;;;;29.23;48.64;99749.52;1749128;81;21579;-77
2021/08/11 09:51:02;;;;;;;3.50;3.10;;;;;;;29.33;48.93;99749.59;1754308;80;20979;-78
2021/08/11 09:53:34;;;;;;;5.58;3.22;;;;;;;29.46;48.17;99749.70;1755478;81;21437;-75
2021/08/11 09:56:05;;;;;;;4.85;3.70;;;;;;;29.52;47.68;99748.67;1747172;80;21051;-73
2021/08/11 09:58:38;;;;;;;7.10;3.42;;;;;;;29.51;46.97;99742.96;1751569;81;22537;-75
2021/08/11 10:01:08;;;;;;;4.50;3.30;;;;;;;29.45;47.21;99752.97;1748051;81;20943;-76
2021/08/11 10:03:35;;;;;;;4.03;3.22;;;;;;;29.41;47.39;99745.03;1749081;81;20996;-77
2021/08/11 10:06:02;;;;;;;4.58;3.10;;;;;;;29.44;46.88;99741.81;1692079;82;21060;-77
2021/08/11 10:08:30;;;;;;;5.67;3.50;;;;;;;29.47;46.59;99739.10;1742221;82;21021;-75
2021/08/11 10:10:57;;;;;;;4.05;3.12;;;;;;;29.48;46.63;99745.67;1742211;82;22520;-76
2021/08/11 10:13:24;;;;;;;4.78;3.22;;;;;;;29.49;46.91;99741.86;1742270;82;21449;-77
2021/08/11 10:15:50;;;;;;;6.78;3.50;;;;;;;29.55;46.80;99738.11;1731917;81;21485;-81
2021/08/11 10:18:21;;;;;;;5.20;3.20;;;;;;;29.60;46.67;99735.41;1694865;84;21480;-80
2021/08/11 10:20:48;;;;;;;5.42;3.42;;;;;;;29.68;46.32;99734.09;1667445;84;21051;-78
2021/08/11 10:23:16;;;;;;;4.05;3.50;;;;;;;29.77;46.49;99730.34;1678368;84;22275;-77
2021/08/11 10:25:43;;;;;;;6.05;3.47;;;;;;;29.95;46.51;99746.78;1693806;84;21041;-78
2021/08/11 10:28:10;;;;;;;5.60;3.10;;;;;;;30.04;45.42;99743.29;1693862;84;21040;-79
2021/08/11 10:30:38;;;;;;;6.72;3.20;;;;;;;30.04;45.27;99728.31;1664355;86;21067;-80
2021/08/11 10:33:05;;;;;;;6.55;3.27;;;;;;;30.09;45.60;99733.80;1660952;85;21048;-82
2021/08/11 10:35:32;;;;;;;5.08;3.50;;;;;;;30.24;45.57;99741.23;1661866;85;22221;-80
2021/08/11 10:37:59;;;;;;;7.50;3.42;;;;;;;30.38;45.43;99734.19;1682890;84;21040;-81
2021/08/11 10:40:27;;;;;;;5.67;2.95;;;;;;;30.57;45.59;99736.42;1693688;84;21059;-80
2021/08/11 10:42:57;;;;;;;4.50;3.12;;;;;;;30.73;43.36;99740.31;1694347;83;21023;-78
2021/08/11 10:45:25;;;;;;;5.22;3.00;;;;;;;30.63;43.82;99738.89;1693882;83;21027;-79
2021/08/11 10:47:52;;;;;;;3.37;2.85;;;;;;;30.52;44.17;99733.70;1694957;84;22407;-78
2021/08/11 10:50:18;;;;;;;4.40;3.02;;;;;;;30.48;43.95;99736.12;1678709;84;21005;-81
2021/08/11 10:52:45;;;;;;;5.80;3.17;;;;;;;30.49;43.27;99739.93;1694081;84;21075;-79
2021/08/11 10:55:12;;;;;;;6.20;2.87;;;;;;;30.52;44.01;99737.78;1694468;84;21015;-79
2021/08/11 10:57:44;;;;;;;6.67;2.85;;;;;;;30.65;43.48;99742.74;1668694;85;21524;-81
2021/08/11 11:00:28;;;;;;;5.12;3.12;;;;;;;30.81;43.69;99743.61;1693821;84;22418;-78
2021/08/11 11:02:53;;;;;;;12.55;3.02;;;;;;;30.97;43.42;99734.33;1654302;86;21060;-76
2021/08/11 11:05:28;;;;;;;4.30;2.90;;;;;;;30.97;42.42;99739.23;1694121;84;21045;-76
2021/08/11 11:08:16;;;;;;;5.45;3.08;;;;;;;30.98;42.92;99748.23;1688746;84;21091;-76
2021/08/11 11:10:45;;;;;;;6.33;2.70;;;;;;;31.11;42.07;99744.17;1695090;84;21170;-76
2021/08/11 11:13:30;;;;;;;5.45;2.80;;;;;;;31.28;43.02;99742.85;1695302;84;21811;-77
2021/08/11 11:15:58;;;;;;;2.90;2.60;;;;;;;31.52;41.71;99747.73;1695552;84;21003;-76
2021/08/11 11:18:25;;;;;;;7.35;2.70;;;;;;;31.60;40.64;99749.36;1695382;84;21069;-77
2021/08/11 11:21:03;;;;;;;4.75;2.67;;;;;;;31.51;40.63;99744.73;1689328;84;21005;-77
2021/08/11 11:23:40;;;;;;;6.55;3.00;;;;;;;31.47;40.55;99747.75;1694599;84;21459;-76
2021/08/11 11:26:15;;;;;;;5.17;3.17;;;;;;;31.54;40.71;99746.91;1651265;86;22831;-76
2021/08/11 11:29:09;;;;;;;3.85;2.55;;;;;;;31.59;40.52;99752.37;1718637;83;21040;-76
2021/08/11 11:31:51;;;;;;;4.53;2.90;;;;;;;31.61;39.93;99751.54;1718663;83;21111;-75
2021/08/11 11:34:34;;;;;;;4.37;3.05;;;;;;;31.53;39.91;99752.09;1726055;82;20997;-76
2021/08/11 11:37:04;;;;;;;;;;;;;;;31.58;40.30;99750.19;1745328;82;21032;-77
2021/08/11 11:39:43;;;;;;;3.50;2.35;;;;;;;31.73;40.14;99753.97;1742512;82;22886;-76
2021/08/11 11:42:19;;;;;;;7.78;2.55;;;;;;;31.82;39.21;99745.52;1713381;82;21060;-77
2021/08/11 11:44:54;;;;;;;3.98;2.50;;;;;;;31.78;39.78;99752.64;1745982;82;21005;-77